Time;durP1;ratioP1;P1;durP2;ratioP2;P2;SDS_P1;SDS_P2;PMS_P1;PMS_P2;Temp;Humidity;BMP_temperature;BMP_pressure;BME280_temperature;BME280_humidity;BME280_pressure;Samples;Min_cycle;Max_cycle;Signal;HPM_P1;HPM_P2
2022/11/21 00:01:21;;;;;;;26.43;16.27;;;5.80;79.00;;;;;;5034151;28;20021;-66
2022/11/21 00:03:46;;;;;;;24.23;15.80;;;5.80;79.00;;;;;;5034548;28;20022;-66
2022/11/21 00:06:12;;;;;;;24.97;15.13;;;5.80;79.00;;;;;;5031805;28;20079;-66
2022/11/21 00:08:38;;;;;;;25.53;16.07;;;5.80;79.00;;;;;;5033587;28;20064;-66
2022/11/21 00:11:03;;;;;;;27.60;16.80;;;5.80;79.00;;;;;;5034105;28;20438;-66
2022/11/21 00:13:29;;;;;;;26.23;16.63;;;5.80;79.00;;;;;;5033132;28;20045;-66
2022/11/21 00:15:54;;;;;;;25.90;15.63;;;5.80;79.00;;;;;;5033428;28;20033;-67
2022/11/21 00:18:20;;;;;;;25.73;16.53;;;5.80;79.10;;;;;;5048002;28;20038;-66
2022/11/21 00:20:46;;;;;;;26.33;16.30;;;5.80;79.00;;;;;;5040305;28;20025;-66
2022/11/21 00:23:12;;;;;;;26.17;16.80;;;5.80;79.10;;;;;;5033918;28;20053;-66
2022/11/21 00:25:38;;;;;;;26.10;16.37;;;5.80;79.00;;;;;;5034150;28;20365;-66
2022/11/21 00:28:04;;;;;;;27.90;16.73;;;5.80;79.00;;;;;;5033491;28;20371;-66
2022/11/21 00:30:30;;;;;;;24.70;15.77;;;5.80;78.90;;;;;;5037866;28;20029;-66
2022/11/21 00:32:57;;;;;;;24.97;15.97;;;5.80;78.90;;;;;;5032853;28;20048;-66
2022/11/21 00:35:23;;;;;;;27.60;15.47;;;5.80;78.80;;;;;;5032347;28;20037;-66
2022/11/21 00:37:49;;;;;;;27.53;16.80;;;5.80;78.80;;;;;;5034330;28;20108;-66
2022/11/21 00:40:15;;;;;;;25.77;15.93;;;5.80;78.70;;;;;;5034278;28;20076;-67
2022/11/21 00:42:41;;;;;;;26.20;16.23;;;5.80;78.80;;;;;;5031037;28;20032;-66
2022/11/21 00:45:07;;;;;;;27.40;16.50;;;5.70;78.70;;;;;;5033234;28;20029;-67
2022/11/21 00:47:33;;;;;;;27.10;15.70;;;5.80;78.80;;;;;;5049307;28;20045;-66
2022/11/21 00:49:58;;;;;;;25.53;16.17;;;5.80;78.80;;;;;;5033659;28;20347;-66
2022/11/21 00:52:24;;;;;;;25.73;16.27;;;5.80;78.80;;;;;;5032497;28;20037;-66
2022/11/21 00:54:49;;;;;;;26.27;16.20;;;5.80;78.80;;;;;;5032656;28;20030;-66
2022/11/21 00:57:15;;;;;;;26.93;16.63;;;5.80;78.70;;;;;;5035095;28;20043;-66
2022/11/21 00:59:41;;;;;;;26.83;16.07;;;5.80;78.70;;;;;;5033748;28;20029;-67
2022/11/21 01:02:06;;;;;;;24.13;15.63;;;5.80;78.70;;;;;;5030186;28;20036;-66
2022/11/21 01:04:33;;;;;;;27.77;16.87;;;5.80;78.70;;;;;;5033675;28;20025;-67
2022/11/21 01:06:59;;;;;;;26.27;15.83;;;5.70;78.60;;;;;;5032041;28;20429;-67
2022/11/21 01:09:25;;;;;;;26.53;16.63;;;5.80;78.70;;;;;;5049339;28;20057;-66
2022/11/21 01:11:51;;;;;;;26.57;16.17;;;5.70;78.60;;;;;;5032663;28;20111;-66
2022/11/21 01:14:16;;;;;;;30.30;16.53;;;5.80;78.70;;;;;;5032280;28;20397;-67
2022/11/21 01:16:42;;;;;;;24.90;15.63;;;5.70;78.70;;;;;;5032307;28;20418;-67
2022/11/21 01:19:07;;;;;;;25.60;15.73;;;5.70;78.60;;;;;;5032639;28;20052;-67
2022/11/21 01:21:33;;;;;;;26.17;15.97;;;5.70;78.60;;;;;;5032574;28;20056;-67
2022/11/21 01:24:00;;;;;;;26.73;15.60;;;5.80;78.70;;;;;;5033151;28;20083;-67
2022/11/21 01:26:28;;;;;;;26.60;16.07;;;5.70;78.60;;;;;;5036762;28;20029;-67
2022/11/21 01:28:54;;;;;;;28.93;16.77;;;5.70;78.60;;;;;;5035408;28;20051;-67
2022/11/21 01:31:22;;;;;;;27.23;17.30;;;5.70;78.60;;;;;;5037881;28;20029;-67
2022/11/21 01:33:48;;;;;;;26.63;16.87;;;5.70;78.60;;;;;;5035866;28;20033;-67
2022/11/21 01:36:29;;;;;;;27.00;15.80;;;5.70;78.60;;;;;;5037530;28;20046;-67
2022/11/21 01:38:57;;;;;;;28.30;17.10;;;5.70;78.60;;;;;;5036905;28;20060;-66
2022/11/21 01:41:34;;;;;;;28.10;16.77;;;5.70;78.60;;;;;;5037497;28;20053;-66
2022/11/21 01:44:02;;;;;;;27.03;15.93;;;5.70;78.60;;;;;;5034094;28;20029;-66
2022/11/21 01:46:28;;;;;;;29.00;16.97;;;5.70;78.60;;;;;;5044624;28;20505;-66
2022/11/21 01:49:02;;;;;;;31.83;18.10;;;5.70;78.50;;;;;;5035032;28;20021;-66
2022/11/21 01:51:36;;;;;;;25.43;15.60;;;5.70;78.50;;;;;;5043974;28;20160;-66
2022/11/21 01:54:19;;;;;;;29.63;17.40;;;5.70;78.50;;;;;;5036345;28;20402;-66
2022/11/21 01:56:54;;;;;;;26.37;16.13;;;5.70;78.50;;;;;;5050918;28;20429;-66
2022/11/21 01:59:35;;;;;;;27.80;16.30;;;5.70;78.50;;;;;;5026481;28;20053;-66
2022/11/21 02:02:04;;;;;;;28.95;17.30;;;5.70;78.50;;;;;;5034879;28;20036;-66
2022/11/21 02:04:32;;;;;;;26.50;16.07;;;5.70;78.50;;;;;;5035294;28;20021;-66
2022/11/21 02:07:00;;;;;;;29.10;17.17;;;5.70;78.50;;;;;;5051553;28;20083;-67
2022/11/21 02:09:28;;;;;;;25.93;16.60;;;5.70;78.50;;;;;;5014489;28;20025;-67
2022/11/21 02:12:42;;;;;;;27.40;16.97;;;5.70;78.50;;;;;;5036633;28;20413;-67
2022/11/21 02:15:08;;;;;;;27.90;16.63;;;5.70;78.40;;;;;;5030674;28;20057;-67
2022/11/21 02:17:34;;;;;;;28.47;17.17;;;5.70;78.50;;;;;;5034859;28;20026;-67
2022/11/21 02:20:03;;;;;;;27.80;16.87;;;5.70;78.50;;;;;;5034216;28;20048;-67
2022/11/21 02:22:51;;;;;;;25.37;16.07;;;5.70;78.50;;;;;;5033979;28;20029;-67
2022/11/21 02:25:28;;;;;;;27.80;16.17;;;5.70;78.50;;;;;;5050549;28;20039;-66
2022/11/21 02:28:01;;;;;;;27.90;16.03;;;5.70;78.40;;;;;;5032987;28;20067;-67
2022/11/21 02:30:29;;;;;;;25.37;16.93;;;5.70;78.40;;;;;;5046778;28;20117;-67
2022/11/21 02:32:55;;;;;;;27.57;15.80;;;5.70;78.40;;;;;;5034310;28;20041;-67
2022/11/21 02:35:21;;;;;;;28.00;16.83;;;5.70;78.40;;;;;;5015833;28;20045;-67
2022/11/21 02:38:07;;;;;;;27.20;16.03;;;5.70;78.30;;;;;;5034602;28;20027;-67
2022/11/21 02:40:36;;;;;;;27.07;16.10;;;5.70;78.30;;;;;;5033752;28;20216;-67
2022/11/21 02:43:29;;;;;;;28.93;18.03;;;5.70;78.30;;;;;;5035587;28;20100;-68
2022/11/21 02:45:55;;;;;;;29.03;17.20;;;5.70;78.30;;;;;;5032298;28;20033;-68
2022/11/21 02:48:20;;;;;;;28.87;16.70;;;5.70;78.30;;;;;;5034435;28;20029;-68
2022/11/21 02:50:46;;;;;;;29.93;17.17;;;5.70;78.40;;;;;;5033768;28;20021;-68
2022/11/21 02:53:15;;;;;;;27.43;16.67;;;5.70;78.40;;;;;;5035273;28;20480;-68
2022/11/21 02:55:41;;;;;;;26.43;16.93;;;5.70;78.40;;;;;;5032974;28;20037;-68
2022/11/21 02:58:06;;;;;;;28.77;17.00;;;5.70;78.40;;;;;;5020095;28;20026;-68
2022/11/21 03:00:34;;;;;;;26.07;17.00;;;5.70;78.50;;;;;;5034227;28;20661;-67
2022/11/21 03:03:00;;;;;;;28.17;17.80;;;5.70;78.40;;;;;;5033842;28;20057;-68
2022/11/21 03:05:26;;;;;;;31.47;18.80;;;5.70;78.40;;;;;;5034679;28;20425;-68
2022/11/21 03:07:51;;;;;;;30.33;17.43;;;5.70;78.50;;;;;;5034032;28;20391;-68
2022/11/21 03:10:17;;;;;;;27.43;16.57;;;5.70;78.40;;;;;;5033497;28;20038;-68
2022/11/21 03:12:43;;;;;;;27.20;16.57;;;5.70;78.50;;;;;;5032431;28;20025;-68
2022/11/21 03:15:11;;;;;;;30.27;18.07;;;5.60;78.40;;;;;;5034121;28;20536;-68
2022/11/21 03:17:38;;;;;;;29.92;17.23;;;5.70;78.50;;;;;;5016589;28;1096198;-68
2022/11/21 03:20:04;;;;;;;29.67;16.90;;;5.60;79.10;;;;;;5034659;28;20022;-68
2022/11/21 03:22:30;;;;;;;32.10;18.57;;;5.70;78.50;;;;;;5034165;28;20043;-68
2022/11/21 03:24:56;;;;;;;31.50;18.50;;;5.60;78.40;;;;;;5034957;28;20116;-68
2022/11/21 03:27:21;;;;;;;29.23;17.43;;;5.60;78.70;;;;;;5033740;28;20029;-68
2022/11/21 03:29:47;;;;;;;31.23;19.37;;;5.60;78.40;;;;;;5035588;28;20029;-68
2022/11/21 03:32:13;;;;;;;30.57;17.73;;;5.60;78.50;;;;;;5033081;28;20029;-68
2022/11/21 03:34:39;;;;;;;32.67;18.33;;;5.60;78.50;;;;;;5034674;28;20041;-68
2022/11/21 03:37:04;;;;;;;32.60;18.70;;;5.60;78.50;;;;;;5033894;28;20025;-68
2022/11/21 03:39:30;;;;;;;33.70;20.03;;;5.60;78.50;;;;;;5033994;28;20446;-68
2022/11/21 03:41:56;;;;;;;30.63;18.33;;;5.60;78.50;;;;;;5034454;28;20040;-69
2022/11/21 03:44:22;;;;;;;34.70;18.63;;;5.60;78.50;;;;;;5033750;28;20029;-68
2022/11/21 03:46:47;;;;;;;32.93;18.67;;;5.60;78.50;;;;;;5050373;28;20110;-68
2022/11/21 03:49:15;;;;;;;31.77;19.27;;;5.60;78.50;;;;;;5033526;28;20022;-67
2022/11/21 03:51:41;;;;;;;34.93;19.77;;;5.60;78.60;;;;;;5034659;28;20334;-68
2022/11/21 03:54:08;;;;;;;32.43;18.70;;;5.50;78.60;;;;;;5033060;28;20091;-68
2022/11/21 03:56:34;;;;;;;34.13;18.13;;;5.50;78.60;;;;;;5028630;28;20382;-68
2022/11/21 03:59:00;;;;;;;32.30;17.83;;;5.50;78.60;;;;;;5029575;28;20132;-68
2022/11/21 04:01:26;;;;;;;30.67;17.23;;;5.50;78.60;;;;;;5034130;28;20053;-68
2022/11/21 04:03:52;;;;;;;34.70;18.07;;;5.50;78.70;;;;;;5033771;28;20072;-68
2022/11/21 04:06:20;;;;;;;32.17;16.57;;;5.50;78.70;;;;;;5043829;28;20022;-68
2022/11/21 04:08:46;;;;;;;31.70;17.47;;;5.50;78.80;;;;;;5033024;28;20022;-68
2022/11/21 04:11:11;;;;;;;32.83;18.00;;;5.60;78.80;;;;;;5034673;28;20036;-68
2022/11/21 04:13:37;;;;;;;30.83;16.93;;;5.50;78.80;;;;;;5033419;28;20399;-68
2022/11/21 04:16:04;;;;;;;32.37;19.47;;;5.50;78.80;;;;;;5034683;28;20076;-68
2022/11/21 04:18:29;;;;;;;35.47;18.60;;;5.50;78.80;;;;;;5033633;28;20069;-68
2022/11/21 04:20:59;;;;;;;28.93;17.63;;;5.50;78.80;;;;;;5049037;28;20068;-68
2022/11/21 04:23:26;;;;;;;32.07;17.37;;;5.50;78.90;;;;;;5032481;28;20028;-68
2022/11/21 04:25:52;;;;;;;31.67;16.90;;;5.50;78.90;;;;;;5048953;28;20040;-67
2022/11/21 04:28:18;;;;;;;33.30;18.37;;;5.50;78.90;;;;;;5033689;28;20033;-68
2022/11/21 04:30:43;;;;;;;33.40;18.00;;;5.50;78.90;;;;;;5033351;28;20052;-68
2022/11/21 04:33:10;;;;;;;33.70;18.67;;;5.50;78.90;;;;;;5034691;28;20029;-68
2022/11/21 04:35:36;;;;;;;33.57;18.63;;;5.50;78.90;;;;;;5033011;28;20442;-68
2022/11/21 04:38:02;;;;;;;29.10;17.03;;;5.50;78.90;;;;;;5030022;28;20083;-68
2022/11/21 04:40:28;;;;;;;29.17;16.30;;;5.50;78.90;;;;;;5032596;28;20044;-68
2022/11/21 04:42:53;;;;;;;31.27;17.70;;;5.50;78.90;;;;;;5034340;28;20021;-68
2022/11/21 04:45:19;;;;;;;31.13;18.53;;;5.60;78.90;;;;;;5032205;28;20030;-68
2022/11/21 04:47:45;;;;;;;31.73;18.30;;;5.60;78.80;;;;;;5034076;28;20026;-68
2022/11/21 04:50:14;;;;;;;31.30;19.37;;;5.50;79.40;;;;;;5015350;28;20034;-68
2022/11/21 04:52:41;;;;;;;35.50;19.30;;;5.60;78.80;;;;;;5033116;28;20045;-68
2022/11/21 04:55:07;;;;;;;33.50;19.03;;;5.60;78.90;;;;;;5032445;28;20484;-68
2022/11/21 04:57:33;;;;;;;34.97;18.47;;;5.50;78.80;;;;;;5032585;28;20068;-68
2022/11/21 04:59:59;;;;;;;31.40;17.30;;;5.50;78.90;;;;;;5031213;28;20061;-68
2022/11/21 05:02:25;;;;;;;31.97;17.93;;;5.60;78.90;;;;;;5033109;28;20079;-68
2022/11/21 05:04:50;;;;;;;34.63;19.07;;;5.60;78.90;;;;;;5032428;28;20423;-68
2022/11/21 05:07:16;;;;;;;34.47;19.33;;;5.60;79.50;;;;;;5034026;28;20033;-68
2022/11/21 05:09:43;;;;;;;36.37;19.57;;;5.60;78.90;;;;;;5032923;28;20036;-68
2022/11/21 05:14:53;;;;;;;37.30;20.00;;;5.60;79.00;;;;;;5032766;28;20709;-68
2022/11/21 05:17:19;;;;;;;37.40;20.37;;;5.60;79.70;;;;;;5033981;28;20025;-67
2022/11/21 05:19:45;;;;;;;35.47;19.43;;;5.60;79.00;;;;;;5032448;28;20053;-68
2022/11/21 05:22:11;;;;;;;32.73;17.70;;;5.60;79.00;;;;;;5033663;28;20112;-68
2022/11/21 05:24:37;;;;;;;34.40;17.33;;;5.50;79.00;;;;;;5033134;28;20064;-68
2022/11/21 05:27:02;;;;;;;35.57;18.63;;;5.50;79.70;;;;;;5032506;28;20037;-68
2022/11/21 05:29:28;;;;;;;36.57;18.50;;;5.50;79.10;;;;;;5033098;28;20065;-67
2022/11/21 05:31:54;;;;;;;33.20;18.10;;;5.50;79.10;;;;;;5032692;28;20029;-68
2022/11/21 05:34:19;;;;;;;33.87;17.57;;;5.50;79.10;;;;;;5033350;28;20091;-68
2022/11/21 05:36:45;;;;;;;36.20;18.93;;;5.50;79.20;;;;;;5032947;28;20056;-68
2022/11/21 05:39:10;;;;;;;31.70;17.33;;;5.50;79.20;;;;;;5032260;28;20034;-68
2022/11/21 05:41:36;;;;;;;36.13;17.43;;;5.50;79.20;;;;;;5021643;28;20030;-68
2022/11/21 05:44:02;;;;;;;32.70;17.27;;;5.50;79.20;;;;;;5027167;28;20033;-68
2022/11/21 05:46:28;;;;;;;34.00;18.33;;;5.50;79.30;;;;;;5029402;28;20405;-68
2022/11/21 05:48:54;;;;;;;37.37;18.27;;;5.50;79.30;;;;;;5032858;28;20025;-68
2022/11/21 05:51:21;;;;;;;35.60;18.43;;;5.50;79.40;;;;;;5031213;28;20033;-68
2022/11/21 05:53:47;;;;;;;36.33;17.50;;;5.50;79.40;;;;;;5029959;28;20022;-68
2022/11/21 05:56:15;;;;;;;38.43;19.30;;;5.50;79.50;;;;;;5028979;28;20040;-68
2022/11/21 05:58:42;;;;;;;40.03;19.70;;;5.50;79.50;;;;;;5032695;28;20060;-68
2022/11/21 06:01:09;;;;;;;40.27;19.23;;;5.50;79.50;;;;;;5013873;28;20044;-67
2022/11/21 06:03:38;;;;;;;45.00;22.43;;;5.50;79.60;;;;;;5033045;28;20032;-67
2022/11/21 06:06:08;;;;;;;41.43;20.67;;;5.50;79.60;;;;;;5032435;28;20465;-68
2022/11/21 06:08:42;;;;;;;41.70;21.17;;;5.50;79.60;;;;;;5031871;28;20041;-68
2022/11/21 06:11:09;;;;;;;45.70;22.53;;;5.50;79.60;;;;;;5031868;28;20106;-68
2022/11/21 06:13:35;;;;;;;43.97;22.57;;;5.50;79.70;;;;;;5033487;28;20051;-67
2022/11/21 06:16:09;;;;;;;42.70;21.10;;;5.50;79.80;;;;;;5036206;28;20101;-67
2022/11/21 06:18:37;;;;;;;46.80;21.73;;;5.50;79.90;;;;;;5035191;28;20124;-67
2022/11/21 06:21:23;;;;;;;43.53;21.13;;;5.50;79.90;;;;;;5035868;28;20034;-68
2022/11/21 06:23:51;;;;;;;39.40;20.03;;;5.50;79.90;;;;;;5035496;28;20030;-67
2022/11/21 06:26:19;;;;;;;41.37;21.33;;;5.50;79.90;;;;;;5033530;28;20049;-67
2022/11/21 06:28:45;;;;;;;38.30;19.13;;;5.50;80.00;;;;;;5033578;28;20026;-68
2022/11/21 06:31:13;;;;;;;34.63;17.97;;;5.50;80.70;;;;;;5036579;28;20061;-68
2022/11/21 06:33:40;;;;;;;37.70;18.57;;;5.50;80.10;;;;;;5036065;28;20300;-68
2022/11/21 06:36:11;;;;;;;36.43;20.10;;;5.50;80.10;;;;;;5036300;28;20048;-68
2022/11/21 06:38:37;;;;;;;39.35;20.63;;;5.60;80.10;;;;;;5051395;28;20040;-68
2022/11/21 06:41:15;;;;;;;37.77;19.57;;;5.50;80.00;;;;;;5035480;28;20393;-68
2022/11/21 06:43:41;;;;;;;38.80;20.17;;;5.50;80.10;;;;;;5050213;28;20025;-68
2022/11/21 06:46:07;;;;;;;38.30;19.40;;;5.50;80.10;;;;;;5036878;28;20076;-68
2022/11/21 06:48:34;;;;;;;37.50;19.13;;;5.50;80.20;;;;;;5035770;28;20040;-68
2022/11/21 06:51:10;;;;;;;39.63;20.20;;;5.50;80.30;;;;;;5036795;28;20029;-68
2022/11/21 06:53:35;;;;;;;34.17;19.13;;;5.60;80.30;;;;;;5035801;28;20112;-68
2022/11/21 06:56:02;;;;;;;37.23;18.93;;;5.50;80.30;;;;;;5051125;28;20174;-68
2022/11/21 06:58:28;;;;;;;35.53;19.30;;;5.60;80.40;;;;;;5035627;28;20448;-68
2022/11/21 07:00:54;;;;;;;36.00;18.93;;;5.60;80.40;;;;;;5035085;28;20142;-68
2022/11/21 07:03:21;;;;;;;34.93;18.37;;;5.60;80.40;;;;;;5032494;28;20022;-68
2022/11/21 07:05:47;;;;;;;30.67;16.20;;;5.60;80.40;;;;;;5035790;28;20025;-69
2022/11/21 07:08:13;;;;;;;32.10;17.03;;;5.60;80.40;;;;;;5033816;28;20116;-69
2022/11/21 07:10:39;;;;;;;32.40;16.83;;;5.60;80.40;;;;;;5035661;28;20140;-69
2022/11/21 07:13:23;;;;;;;29.77;16.40;;;5.70;80.40;;;;;;5036076;28;20036;-68
2022/11/21 07:15:54;;;;;;;28.77;14.80;;;5.70;80.30;;;;;;5034909;28;20083;-68
2022/11/21 07:18:21;;;;;;;27.60;15.47;;;5.80;80.30;;;;;;5035014;28;20152;-69
2022/11/21 07:20:47;;;;;;;32.77;16.73;;;5.80;80.20;;;;;;5033034;28;20076;-69
2022/11/21 07:23:14;;;;;;;31.33;16.53;;;5.80;80.20;;;;;;5019396;28;20072;-69
2022/11/21 07:25:40;;;;;;;28.97;15.53;;;5.80;80.30;;;;;;5034825;28;20516;-69
2022/11/21 07:28:07;;;;;;;30.80;15.03;;;5.70;80.30;;;;;;5035655;28;20439;-69
2022/11/21 07:30:34;;;;;;;29.90;16.03;;;5.70;80.30;;;;;;5033212;28;20040;-69
2022/11/21 07:33:02;;;;;;;26.73;15.70;;;5.80;80.40;;;;;;5034279;28;20034;-68
2022/11/21 07:35:28;;;;;;;30.03;15.63;;;5.80;80.40;;;;;;5032685;28;20075;-66
2022/11/21 07:37:54;;;;;;;29.03;14.33;;;5.80;80.40;;;;;;5049058;28;20065;-66
2022/11/21 07:40:20;;;;;;;31.80;16.57;;;5.80;80.30;;;;;;5037019;28;20436;-66
2022/11/21 07:42:46;;;;;;;30.13;15.43;;;5.80;80.30;;;;;;5034805;28;20029;-68
2022/11/21 07:45:13;;;;;;;31.93;17.30;;;5.80;80.40;;;;;;5031317;28;20034;-68
2022/11/21 07:47:39;;;;;;;28.73;14.97;;;5.80;80.40;;;;;;5034532;28;20029;-69
2022/11/21 07:50:06;;;;;;;27.37;14.20;;;5.80;80.30;;;;;;5033044;28;20036;-69
2022/11/21 07:52:32;;;;;;;25.43;13.70;;;5.80;80.30;;;;;;5034228;28;20033;-68
2022/11/21 07:54:57;;;;;;;29.13;14.90;;;5.80;80.30;;;;;;5029863;28;20080;-69
2022/11/21 07:57:23;;;;;;;30.30;15.33;;;5.80;80.30;;;;;;5035174;28;20039;-69
2022/11/21 07:59:49;;;;;;;33.50;16.37;;;5.90;80.40;;;;;;5031621;28;20137;-68
2022/11/21 08:02:33;;;;;;;31.03;16.30;;;5.80;80.30;;;;;;5033838;28;20133;-69
2022/11/21 08:04:59;;;;;;;31.67;16.23;;;5.80;80.30;;;;;;5032363;28;20296;-69
2022/11/21 08:07:24;;;;;;;29.47;15.90;;;5.80;80.40;;;;;;5051151;28;20061;-68
2022/11/21 08:09:50;;;;;;;31.37;16.33;;;5.80;80.40;;;;;;5032284;28;20049;-68
2022/11/21 08:12:16;;;;;;;32.20;17.37;;;5.80;80.40;;;;;;5035023;28;20416;-68
2022/11/21 08:14:42;;;;;;;31.03;16.43;;;5.80;80.40;;;;;;5030651;28;20037;-68
2022/11/21 08:17:08;;;;;;;32.67;17.87;;;5.80;80.40;;;;;;5034117;28;20508;-67
2022/11/21 08:19:34;;;;;;;34.27;17.30;;;5.80;80.40;;;;;;5032325;28;20037;-68
2022/11/21 08:22:00;;;;;;;31.77;16.63;;;5.80;80.50;;;;;;5032817;28;20037;-68
2022/11/21 08:24:26;;;;;;;35.40;18.37;;;5.80;80.50;;;;;;5030002;28;20022;-68
2022/11/21 08:26:51;;;;;;;33.07;16.97;;;5.80;80.60;;;;;;5033617;28;20029;-68
2022/11/21 08:29:17;;;;;;;32.03;17.63;;;5.80;81.20;;;;;;5033708;28;20071;-68
2022/11/21 08:31:43;;;;;;;29.23;16.37;;;5.80;80.50;;;;;;5032509;28;20140;-68
2022/11/21 08:34:10;;;;;;;33.03;17.73;;;5.90;80.60;;;;;;5030244;28;20116;-68
2022/11/21 08:36:35;;;;;;;35.03;17.20;;;5.90;80.60;;;;;;5033144;28;20108;-67
2022/11/21 08:39:01;;;;;;;33.77;17.27;;;5.90;80.70;;;;;;5032963;28;20497;-68
2022/11/21 08:44:11;;;;;;;33.60;16.47;;;5.90;80.70;;;;;;5040966;28;20091;-69
2022/11/21 08:46:37;;;;;;;33.90;17.13;;;5.90;80.60;;;;;;5034592;28;20048;-68
2022/11/21 08:49:03;;;;;;;31.40;16.87;;;5.90;80.70;;;;;;5033354;28;20048;-68
2022/11/21 08:51:29;;;;;;;32.03;16.37;;;5.90;80.70;;;;;;5034820;28;20362;-69
2022/11/21 08:53:54;;;;;;;28.80;17.17;;;5.90;80.70;;;;;;5032917;28;20037;-69
2022/11/21 08:56:20;;;;;;;31.43;16.70;;;5.90;80.80;;;;;;5031705;28;20053;-69
2022/11/21 08:58:46;;;;;;;32.23;17.03;;;6.00;80.90;;;;;;5032415;28;20018;-67
2022/11/21 09:01:11;;;;;;;34.80;16.93;;;5.90;80.80;;;;;;5029752;28;20422;-69
2022/11/21 09:03:37;;;;;;;32.33;15.77;;;5.90;80.80;;;;;;5034091;28;20017;-68
2022/11/21 09:06:02;;;;;;;27.70;15.77;;;6.00;80.90;;;;;;5033273;28;20091;-68
2022/11/21 09:08:29;;;;;;;29.70;15.37;;;5.90;80.80;;;;;;5033501;28;20040;-66
2022/11/21 09:10:55;;;;;;;28.77;14.87;;;6.00;81.00;;;;;;5034219;28;20469;-67
2022/11/21 09:13:21;;;;;;;30.10;16.17;;;6.00;80.90;;;;;;5034430;28;20053;-67
2022/11/21 09:18:31;;;;;;;31.87;15.77;;;6.00;81.60;;;;;;5034465;28;20046;-68
2022/11/21 09:20:56;;;;;;;35.10;16.80;;;6.00;81.10;;;;;;5033749;28;20382;-69
2022/11/21 09:23:22;;;;;;;34.20;16.00;;;6.00;81.10;;;;;;5032874;28;20025;-69
2022/11/21 09:25:48;;;;;;;29.40;14.87;;;6.00;81.10;;;;;;5016908;28;20083;-69
2022/11/21 09:28:14;;;;;;;33.70;16.43;;;6.00;81.10;;;;;;5034002;28;20029;-68
2022/11/21 09:30:40;;;;;;;29.83;16.27;;;6.10;81.20;;;;;;5033988;28;20323;-69
2022/11/21 09:33:09;;;;;;;29.57;15.77;;;6.10;81.20;;;;;;5033193;28;20065;-69
2022/11/21 09:35:35;;;;;;;29.93;16.13;;;6.10;81.20;;;;;;5034071;28;20037;-69
2022/11/21 09:38:02;;;;;;;35.40;16.93;;;6.10;81.30;;;;;;5033681;28;20034;-69
2022/11/21 09:40:32;;;;;;;30.33;16.07;;;6.10;81.30;;;;;;5033448;28;20026;-69
2022/11/21 09:43:19;;;;;;;33.73;14.93;;;6.20;81.40;;;;;;5031944;28;20097;-67
2022/11/21 09:45:49;;;;;;;30.53;16.17;;;6.20;81.40;;;;;;5033647;28;20117;-66
2022/11/21 09:48:23;;;;;;;29.10;14.37;;;6.30;81.40;;;;;;5037727;28;20025;-67
2022/11/21 09:50:54;;;;;;;30.43;15.47;;;6.30;81.40;;;;;;5037951;28;20033;-66
2022/11/21 09:53:25;;;;;;;30.50;15.88;;;6.30;81.40;;;;;;5036581;28;20029;-67
2022/11/21 09:55:58;;;;;;;32.53;15.60;;;6.40;81.40;;;;;;5037081;28;20091;-67
2022/11/21 09:59:04;;;;;;;30.17;14.90;;;6.40;81.40;;;;;;5035926;28;20029;-67
2022/11/21 10:01:30;;;;;;;29.43;16.00;;;6.40;81.40;;;;;;5024125;28;20017;-67
2022/11/21 10:03:56;;;;;;;29.83;14.47;;;6.50;81.40;;;;;;5036868;28;20047;-67
2022/11/21 10:06:26;;;;;;;29.03;14.97;;;6.50;81.40;;;;;;5037419;28;20529;-67
2022/11/21 10:09:22;;;;;;;28.77;15.33;;;6.50;81.60;;;;;;5038041;28;20354;-67
2022/11/21 10:15:02;;;;;;;30.60;15.53;;;6.50;81.60;;;;;;5035425;28;20025;-67
2022/11/21 10:17:37;;;;;;;28.13;14.47;;;6.60;81.60;;;;;;5037001;28;20029;-67
2022/11/21 10:20:36;;;;;;;29.53;14.23;;;6.60;81.60;;;;;;5036113;28;20230;-67
2022/11/21 10:23:14;;;;;;;28.37;14.77;;;6.60;81.70;;;;;;5036931;28;20037;-67
2022/11/21 10:25:48;;;;;;;28.40;13.67;;;6.60;81.70;;;;;;5036091;28;20048;-67
2022/11/21 10:28:34;;;;;;;28.20;14.47;;;6.60;82.40;;;;;;5036043;28;20029;-67
2022/11/21 10:31:01;;;;;;;28.53;13.90;;;6.70;81.80;;;;;;5037344;28;20041;-67
2022/11/21 10:33:32;;;;;;;32.00;14.93;;;6.70;81.80;;;;;;5035726;28;20148;-67
2022/11/21 10:36:04;;;;;;;34.77;15.57;;;6.70;81.90;;;;;;5035937;28;20091;-67
2022/11/21 10:38:36;;;;;;;31.03;16.17;;;6.70;81.90;;;;;;5036572;28;20350;-67
2022/11/21 10:41:22;;;;;;;32.33;15.00;;;6.70;82.00;;;;;;5037498;28;20104;-67
2022/11/21 10:46:34;;;;;;;35.60;16.83;;;6.70;82.10;;;;;;5036894;28;20039;-67
2022/11/21 10:49:03;;;;;;;34.37;15.30;;;6.70;82.10;;;;;;5034762;28;20112;-67
2022/11/21 10:51:34;;;;;;;32.83;15.73;;;6.70;82.30;;;;;;5035493;28;20033;-67
2022/11/21 10:56:57;;;;;;;32.10;16.70;;;6.80;82.50;;;;;;5034922;28;20572;-67
2022/11/21 10:59:29;;;;;;;35.28;16.55;;;6.80;82.40;;;;;;5035559;28;20099;-67
2022/11/21 11:02:02;;;;;;;31.73;16.45;;;6.80;82.50;;;;;;5035691;28;20028;-67
2022/11/21 11:04:31;;;;;;;36.27;17.53;;;6.90;82.60;;;;;;5037679;28;20029;-67
2022/11/21 11:06:58;;;;;;;35.70;18.07;;;6.90;82.50;;;;;;5033171;28;20029;-67
2022/11/21 11:09:32;;;;;;;33.40;17.27;;;7.00;82.60;;;;;;5033671;28;20424;-67
2022/11/21 11:13:32;;;;;;;40.40;17.73;;;7.00;82.60;;;;;;5030516;28;20029;-67
2022/11/21 11:15:17;;;;;;;31.80;15.80;;;7.00;82.60;;;;;;5029215;28;20418;-67
2022/11/21 11:17:49;;;;;;;37.13;17.43;;;7.10;82.70;;;;;;5032289;28;20116;-67
2022/11/21 11:20:35;;;;;;;34.90;18.37;;;7.00;82.70;;;;;;5028949;28;20451;-67
2022/11/21 11:23:19;;;;;;;37.90;17.37;;;7.10;82.80;;;;;;5028687;28;20061;-67
2022/11/21 11:25:58;;;;;;;35.57;18.03;;;7.10;82.80;;;;;;5028624;28;20386;-67
2022/11/21 11:28:34;;;;;;;36.53;18.98;;;7.10;82.80;;;;;;5030256;28;20072;-67
2022/11/21 11:31:00;;;;;;;33.97;18.47;;;7.20;82.80;;;;;;5031733;28;20481;-67
2022/11/21 11:33:37;;;;;;;38.93;20.30;;;7.30;82.80;;;;;;5024092;28;20031;-67
2022/11/21 11:36:20;;;;;;;33.07;19.03;;;7.30;82.90;;;;;;5025238;28;20121;-67
2022/11/21 11:39:16;;;;;;;48.60;19.63;;;7.40;82.90;;;;;;5031551;28;20041;-67
2022/11/21 11:48:18;;;;;;;;;;;7.60;82.40;;;;;;5046644;28;19916;-67
2022/11/21 11:50:51;;;;;;;28.97;13.90;;;7.70;82.10;;;;;;5030769;28;19909;-68
2022/11/21 11:53:25;;;;;;;27.90;14.43;;;7.70;81.90;;;;;;5028286;28;20125;-68
2022/11/21 11:55:58;;;;;;;29.85;16.02;;;7.80;82.10;;;;;;5027338;28;20037;-68
2022/11/21 11:58:33;;;;;;;34.67;16.75;;;7.80;82.20;;;;;;5028694;28;20079;-68
2022/11/21 12:01:17;;;;;;;29.20;16.33;;;7.90;82.30;;;;;;5044753;28;20033;-68
2022/11/21 12:03:59;;;;;;;33.97;17.07;;;7.90;82.30;;;;;;5027111;28;20108;-68
2022/11/21 12:06:41;;;;;;;33.67;17.45;;;8.00;82.40;;;;;;5029371;28;20036;-68
2022/11/21 12:09:18;;;;;;;34.83;17.20;;;8.00;82.40;;;;;;5027091;28;20079;-67
2022/11/21 12:12:05;;;;;;;31.65;16.90;;;8.00;82.40;;;;;;5029099;28;20037;-67
2022/11/21 12:18:14;;;;;;;35.33;18.23;;;8.10;82.60;;;;;;5047493;28;20363;-68
2022/11/21 12:20:54;;;;;;;33.05;17.45;;;8.10;82.50;;;;;;5027926;28;20095;-67
2022/11/21 12:23:22;;;;;;;33.33;18.70;;;8.10;82.60;;;;;;5043568;28;20116;-67
2022/11/21 12:26:06;;;;;;;36.95;19.55;;;8.10;82.60;;;;;;5029022;28;20026;-67
2022/11/21 12:29:04;;;;;;;35.95;19.20;;;8.10;82.70;;;;;;5029669;28;20022;-67
2022/11/21 12:32:00;;;;;;;34.65;19.15;;;8.20;82.70;;;;;;5028718;28;20789;-67
2022/11/21 12:35:03;;;;;;;32.22;18.52;;;8.20;82.70;;;;;;5042614;28;20037;-67
2022/11/21 12:37:59;;;;;;;32.63;17.80;;;8.30;82.60;;;;;;5029188;28;20397;-67
2022/11/21 12:40:42;;;;;;;30.10;17.65;;;8.30;82.60;;;;;;5027675;28;20029;-67
2022/11/21 12:43:20;;;;;;;27.42;16.17;;;8.40;82.70;;;;;;5032635;28;20036;-68
2022/11/21 12:46:14;;;;;;;32.67;17.63;;;8.40;82.70;;;;;;5026709;28;20028;-67
2022/11/21 12:54:37;;;;;;;24.45;14.23;;;8.40;82.70;;;;;;5033456;28;20057;-67
2022/11/21 12:57:11;;;;;;;23.27;14.63;;;8.40;82.80;;;;;;5033986;28;20041;-67
2022/11/21 13:00:08;;;;;;;25.38;12.65;;;8.40;82.90;;;;;;5002427;28;20059;-67
2022/11/21 13:03:11;;;;;;;19.95;13.27;;;8.50;83.00;;;;;;5039503;28;20117;-67
2022/11/21 13:05:44;;;;;;;22.98;13.40;;;8.50;83.00;;;;;;5050075;28;20029;-67
2022/11/21 13:08:15;;;;;;;20.10;12.25;;;8.50;82.90;;;;;;5033923;28;20030;-67
2022/11/21 13:11:57;;;;;;;20.27;12.73;;;8.50;83.00;;;;;;5034835;28;20037;-67
2022/11/21 13:13:48;;;;;;;22.60;13.85;;;8.50;83.00;;;;;;5033528;28;20048;-67
2022/11/21 13:16:35;;;;;;;20.05;12.32;;;8.50;83.00;;;;;;5034490;28;20030;-68
2022/11/21 13:19:23;;;;;;;22.67;13.05;;;8.50;83.10;;;;;;5034445;28;20038;-67
2022/11/21 13:21:52;;;;;;;17.55;11.20;;;8.60;83.10;;;;;;5016805;28;20037;-68
2022/11/21 13:24:50;;;;;;;20.23;11.38;;;8.60;83.00;;;;;;5021218;28;20389;-68
2022/11/21 13:27:26;;;;;;;18.27;11.07;;;8.70;83.00;;;;;;5026328;28;20052;-68